sensor_id;sensor_type;location;lat;lon;timestamp;temperature;humidity
23124;DHT22;11731;48.592;8.858;2023-03-14T00:02:13;11.10;99.90
23124;DHT22;11731;48.592;8.858;2023-03-14T00:04:40;11.00;99.90
23124;DHT22;11731;48.592;8.858;2023-03-14T00:07:07;10.90;99.90
23124;DHT22;11731;48.592;8.858;2023-03-14T00:09:36;10.90;99.90
23124;DHT22;11731;48.592;8.858;2023-03-14T00:12:06;10.80;99.90
23124;DHT22;11731;48.592;8.858;2023-03-14T00:14:47;11.10;99.90
23124;DHT22;11731;48.592;8.858;2023-03-14T00:17:16;11.10;99.90
23124;DHT22;11731;48.592;8.858;2023-03-14T00:20:02;11.10;99.90
23124;DHT22;11731;48.592;8.858;2023-03-14T00:22:34;11.00;99.90
23124;DHT22;11731;48.592;8.858;2023-03-14T00:25:01;11.00;99.90
23124;DHT22;11731;48.592;8.858;2023-03-14T00:27:29;11.00;99.90
23124;DHT22;11731;48.592;8.858;2023-03-14T00:29:56;11.00;99.90
23124;DHT22;11731;48.592;8.858;2023-03-14T00:32:23;11.00;99.90
23124;DHT22;11731;48.592;8.858;2023-03-14T00:34:50;10.90;99.90
23124;DHT22;11731;48.592;8.858;2023-03-14T00:37:31;10.90;99.90
23124;DHT22;11731;48.592;8.858;2023-03-14T00:39:58;10.90;99.90
23124;DHT22;11731;48.592;8.858;2023-03-14T00:42:25;10.90;99.90
23124;DHT22;11731;48.592;8.858;2023-03-14T00:44:54;11.00;99.90
23124;DHT22;11731;48.592;8.858;2023-03-14T00:47:21;11.00;99.90
23124;DHT22;11731;48.592;8.858;2023-03-14T00:49:47;10.90;99.90
23124;DHT22;11731;48.592;8.858;2023-03-14T00:52:14;10.70;99.90
23124;DHT22;11731;48.592;8.858;2023-03-14T00:54:41;10.70;99.90
23124;DHT22;11731;48.592;8.858;2023-03-14T00:57:08;10.50;99.90
23124;DHT22;11731;48.592;8.858;2023-03-14T00:59:35;10.20;99.90
23124;DHT22;11731;48.592;8.858;2023-03-14T01:02:03;10.10;99.90
23124;DHT22;11731;48.592;8.858;2023-03-14T01:04:30;10.00;99.90
23124;DHT22;11731;48.592;8.858;2023-03-14T01:06:57;10.10;99.90
23124;DHT22;11731;48.592;8.858;2023-03-14T01:09:24;10.10;99.90
23124;DHT22;11731;48.592;8.858;2023-03-14T01:12:16;10.10;99.90
23124;DHT22;11731;48.592;8.858;2023-03-14T01:15:13;10.20;99.90
23124;DHT22;11731;48.592;8.858;2023-03-14T01:17:42;10.30;99.90
23124;DHT22;11731;48.592;8.858;2023-03-14T01:20:13;10.30;99.90
23124;DHT22;11731;48.592;8.858;2023-03-14T01:22:41;10.20;99.90
23124;DHT22;11731;48.592;8.858;2023-03-14T01:25:11;10.10;99.90
23124;DHT22;11731;48.592;8.858;2023-03-14T01:27:38;10.10;99.90
23124;DHT22;11731;48.592;8.858;2023-03-14T01:30:06;10.00;99.90
23124;DHT22;11731;48.592;8.858;2023-03-14T01:32:38;10.00;99.90
23124;DHT22;11731;48.592;8.858;2023-03-14T01:35:35;9.90;99.90
23124;DHT22;11731;48.592;8.858;2023-03-14T01:38:02;9.90;99.90
23124;DHT22;11731;48.592;8.858;2023-03-14T01:40:28;9.90;99.90
23124;DHT22;11731;48.592;8.858;2023-03-14T01:42:56;10.10;99.90
23124;DHT22;11731;48.592;8.858;2023-03-14T01:46:12;10.20;99.90
23124;DHT22;11731;48.592;8.858;2023-03-14T01:48:45;10.30;99.90
23124;DHT22;11731;48.592;8.858;2023-03-14T01:51:18;10.10;99.90
23124;DHT22;11731;48.592;8.858;2023-03-14T01:53:48;10.00;99.90
23124;DHT22;11731;48.592;8.858;2023-03-14T01:56:30;9.90;99.90
23124;DHT22;11731;48.592;8.858;2023-03-14T01:58:58;9.90;99.90
23124;DHT22;11731;48.592;8.858;2023-03-14T02:01:27;9.80;99.90
23124;DHT22;11731;48.592;8.858;2023-03-14T02:03:57;9.80;99.90
23124;DHT22;11731;48.592;8.858;2023-03-14T02:06:32;9.90;99.90
23124;DHT22;11731;48.592;8.858;2023-03-14T02:09:00;10.00;99.90
23124;DHT22;11731;48.592;8.858;2023-03-14T02:11:30;9.90;99.90
23124;DHT22;11731;48.592;8.858;2023-03-14T02:13:57;10.00;99.90
23124;DHT22;11731;48.592;8.858;2023-03-14T02:16:25;9.70;99.90
23124;DHT22;11731;48.592;8.858;2023-03-14T02:18:52;9.80;99.90
23124;DHT22;11731;48.592;8.858;2023-03-14T02:21:23;9.80;99.90
23124;DHT22;11731;48.592;8.858;2023-03-14T02:24:01;9.80;99.90
23124;DHT22;11731;48.592;8.858;2023-03-14T02:29:36;10.10;99.90
23124;DHT22;11731;48.592;8.858;2023-03-14T02:32:06;10.10;99.90
23124;DHT22;11731;48.592;8.858;2023-03-14T02:34:35;10.00;99.90
23124;DHT22;11731;48.592;8.858;2023-03-14T02:37:08;9.90;99.90
23124;DHT22;11731;48.592;8.858;2023-03-14T02:39:38;9.80;99.90
23124;DHT22;11731;48.592;8.858;2023-03-14T02:42:05;9.80;99.90
23124;DHT22;11731;48.592;8.858;2023-03-14T02:44:32;9.60;99.90
23124;DHT22;11731;48.592;8.858;2023-03-14T02:47:02;9.70;99.90
23124;DHT22;11731;48.592;8.858;2023-03-14T02:49:32;9.60;99.90
23124;DHT22;11731;48.592;8.858;2023-03-14T02:51:59;9.40;99.90
23124;DHT22;11731;48.592;8.858;2023-03-14T02:54:26;9.50;99.90
23124;DHT22;11731;48.592;8.858;2023-03-14T02:56:53;9.30;99.90
23124;DHT22;11731;48.592;8.858;2023-03-14T02:59:20;9.30;99.90
23124;DHT22;11731;48.592;8.858;2023-03-14T03:01:54;9.30;99.90
23124;DHT22;11731;48.592;8.858;2023-03-14T03:04:22;9.40;99.90
23124;DHT22;11731;48.592;8.858;2023-03-14T03:06:49;9.50;99.90
23124;DHT22;11731;48.592;8.858;2023-03-14T03:12:11;9.20;99.90
23124;DHT22;11731;48.592;8.858;2023-03-14T03:14:38;9.20;99.90
23124;DHT22;11731;48.592;8.858;2023-03-14T03:17:08;9.10;99.90
23124;DHT22;11731;48.592;8.858;2023-03-14T03:19:39;9.10;99.90
23124;DHT22;11731;48.592;8.858;2023-03-14T03:22:06;9.00;99.90
23124;DHT22;11731;48.592;8.858;2023-03-14T03:24:41;9.00;99.90
23124;DHT22;11731;48.592;8.858;2023-03-14T03:27:22;9.00;99.90
23124;DHT22;11731;48.592;8.858;2023-03-14T03:29:59;9.10;99.90
23124;DHT22;11731;48.592;8.858;2023-03-14T03:33:06;9.00;99.90
23124;DHT22;11731;48.592;8.858;2023-03-14T03:35:27;9.10;99.90
23124;DHT22;11731;48.592;8.858;2023-03-14T03:37:54;9.20;99.90
23124;DHT22;11731;48.592;8.858;2023-03-14T03:40:21;9.10;99.90
23124;DHT22;11731;48.592;8.858;2023-03-14T03:42:54;8.90;99.90
23124;DHT22;11731;48.592;8.858;2023-03-14T03:45:20;8.90;99.90
23124;DHT22;11731;48.592;8.858;2023-03-14T03:47:47;9.00;99.90
23124;DHT22;11731;48.592;8.858;2023-03-14T03:50:14;8.80;99.90
23124;DHT22;11731;48.592;8.858;2023-03-14T03:52:43;8.90;99.90
23124;DHT22;11731;48.592;8.858;2023-03-14T03:58:09;8.90;99.90
23124;DHT22;11731;48.592;8.858;2023-03-14T04:00:36;8.80;99.90
23124;DHT22;11731;48.592;8.858;2023-03-14T04:03:04;8.90;99.90
23124;DHT22;11731;48.592;8.858;2023-03-14T04:05:31;8.80;99.90
23124;DHT22;11731;48.592;8.858;2023-03-14T04:08:01;9.00;99.90
23124;DHT22;11731;48.592;8.858;2023-03-14T04:10:28;8.90;99.90
23124;DHT22;11731;48.592;8.858;2023-03-14T04:12:55;9.00;99.90
23124;DHT22;11731;48.592;8.858;2023-03-14T04:15:22;9.00;99.90
23124;DHT22;11731;48.592;8.858;2023-03-14T04:17:48;9.00;99.90
23124;DHT22;11731;48.592;8.858;2023-03-14T04:20:19;9.00;99.90
23124;DHT22;11731;48.592;8.858;2023-03-14T04:23:01;9.00;99.90
23124;DHT22;11731;48.592;8.858;2023-03-14T04:25:28;8.90;99.90
23124;DHT22;11731;48.592;8.858;2023-03-14T04:27:55;8.90;99.90
23124;DHT22;11731;48.592;8.858;2023-03-14T04:30:22;9.00;99.90
23124;DHT22;11731;48.592;8.858;2023-03-14T04:32:49;9.00;99.90
23124;DHT22;11731;48.592;8.858;2023-03-14T04:35:16;8.90;99.90
23124;DHT22;11731;48.592;8.858;2023-03-14T04:37:42;9.10;99.90
23124;DHT22;11731;48.592;8.858;2023-03-14T04:40:12;9.10;99.90
23124;DHT22;11731;48.592;8.858;2023-03-14T04:42:39;9.00;99.90
23124;DHT22;11731;48.592;8.858;2023-03-14T04:45:07;9.00;99.90
23124;DHT22;11731;48.592;8.858;2023-03-14T04:47:34;8.90;99.90
23124;DHT22;11731;48.592;8.858;2023-03-14T04:50:01;9.00;99.90
23124;DHT22;11731;48.592;8.858;2023-03-14T04:52:29;9.00;99.90
23124;DHT22;11731;48.592;8.858;2023-03-14T04:54:56;9.00;99.90
23124;DHT22;11731;48.592;8.858;2023-03-14T04:57:25;9.00;99.90
23124;DHT22;11731;48.592;8.858;2023-03-14T04:59:51;9.00;99.90
23124;DHT22;11731;48.592;8.858;2023-03-14T05:02:39;9.10;99.90
23124;DHT22;11731;48.592;8.858;2023-03-14T05:05:20;8.90;99.90
23124;DHT22;11731;48.592;8.858;2023-03-14T05:07:47;8.80;99.90
23124;DHT22;11731;48.592;8.858;2023-03-14T05:10:15;8.80;99.90
23124;DHT22;11731;48.592;8.858;2023-03-14T05:12:43;9.00;99.90
23124;DHT22;11731;48.592;8.858;2023-03-14T05:15:10;9.00;99.90
23124;DHT22;11731;48.592;8.858;2023-03-14T05:17:37;8.90;99.90
23124;DHT22;11731;48.592;8.858;2023-03-14T05:20:05;9.00;99.90
23124;DHT22;11731;48.592;8.858;2023-03-14T05:22:35;9.00;99.90
23124;DHT22;11731;48.592;8.858;2023-03-14T05:25:02;9.10;99.90
23124;DHT22;11731;48.592;8.858;2023-03-14T05:27:29;9.10;99.90
23124;DHT22;11731;48.592;8.858;2023-03-14T05:29:57;9.10;99.90
23124;DHT22;11731;48.592;8.858;2023-03-14T05:32:24;9.10;99.90
23124;DHT22;11731;48.592;8.858;2023-03-14T05:34:51;9.20;99.90
23124;DHT22;11731;48.592;8.858;2023-03-14T05:37:18;9.00;99.90
23124;DHT22;11731;48.592;8.858;2023-03-14T05:39:45;9.10;99.90
23124;DHT22;11731;48.592;8.858;2023-03-14T05:42:11;9.00;99.90
23124;DHT22;11731;48.592;8.858;2023-03-14T05:44:38;9.00;99.90
23124;DHT22;11731;48.592;8.858;2023-03-14T05:47:07;9.00;99.90
23124;DHT22;11731;48.592;8.858;2023-03-14T05:49:36;9.00;99.90
23124;DHT22;11731;48.592;8.858;2023-03-14T05:52:07;9.10;99.90
23124;DHT22;11731;48.592;8.858;2023-03-14T05:54:34;9.00;99.90
23124;DHT22;11731;48.592;8.858;2023-03-14T05:57:00;9.00;99.90
23124;DHT22;11731;48.592;8.858;2023-03-14T05:59:27;8.90;99.90
23124;DHT22;11731;48.592;8.858;2023-03-14T06:01:54;9.00;99.90
23124;DHT22;11731;48.592;8.858;2023-03-14T06:04:23;9.00;99.90
23124;DHT22;11731;48.592;8.858;2023-03-14T06:06:50;9.10;99.90
23124;DHT22;11731;48.592;8.858;2023-03-14T06:09:17;8.90;99.90
23124;DHT22;11731;48.592;8.858;2023-03-14T06:11:45;8.90;99.90
23124;DHT22;11731;48.592;8.858;2023-03-14T06:14:12;8.90;99.90
23124;DHT22;11731;48.592;8.858;2023-03-14T06:16:39;8.90;99.90
23124;DHT22;11731;48.592;8.858;2023-03-14T06:19:08;9.00;99.90
23124;DHT22;11731;48.592;8.858;2023-03-14T06:21:37;9.00;99.90
23124;DHT22;11731;48.592;8.858;2023-03-14T06:27:12;9.30;99.90
23124;DHT22;11731;48.592;8.858;2023-03-14T06:30:07;9.20;99.90
23124;DHT22;11731;48.592;8.858;2023-03-14T06:32:35;9.30;99.90
23124;DHT22;11731;48.592;8.858;2023-03-14T06:35:31;9.40;99.90
23124;DHT22;11731;48.592;8.858;2023-03-14T06:38:00;9.40;99.90
23124;DHT22;11731;48.592;8.858;2023-03-14T06:40:26;9.50;99.90
23124;DHT22;11731;48.592;8.858;2023-03-14T06:43:03;9.50;99.90
23124;DHT22;11731;48.592;8.858;2023-03-14T06:48:30;9.40;99.90
23124;DHT22;11731;48.592;8.858;2023-03-14T06:48:49;9.40;99.90
23124;DHT22;11731;48.592;8.858;2023-03-14T06:51:38;9.40;99.90
23124;DHT22;11731;48.592;8.858;2023-03-14T06:54:06;9.40;99.90
23124;DHT22;11731;48.592;8.858;2023-03-14T06:56:33;9.30;99.90
23124;DHT22;11731;48.592;8.858;2023-03-14T06:59:00;9.30;99.90
23124;DHT22;11731;48.592;8.858;2023-03-14T07:01:28;9.30;99.90
23124;DHT22;11731;48.592;8.858;2023-03-14T07:03:56;9.50;99.90
23124;DHT22;11731;48.592;8.858;2023-03-14T07:06:25;9.50;99.90
23124;DHT22;11731;48.592;8.858;2023-03-14T07:12:07;9.40;99.90
23124;DHT22;11731;48.592;8.858;2023-03-14T07:14:34;9.60;99.90
23124;DHT22;11731;48.592;8.858;2023-03-14T07:17:00;9.70;99.90
23124;DHT22;11731;48.592;8.858;2023-03-14T07:19:27;9.70;99.90
23124;DHT22;11731;48.592;8.858;2023-03-14T07:22:05;9.70;99.90
23124;DHT22;11731;48.592;8.858;2023-03-14T07:24:32;9.70;99.90
23124;DHT22;11731;48.592;8.858;2023-03-14T07:26:59;9.80;99.90
23124;DHT22;11731;48.592;8.858;2023-03-14T07:29:35;9.60;99.90
23124;DHT22;11731;48.592;8.858;2023-03-14T07:33:01;9.90;99.90
23124;DHT22;11731;48.592;8.858;2023-03-14T07:35:17;9.90;99.90
23124;DHT22;11731;48.592;8.858;2023-03-14T07:37:49;10.20;99.90
23124;DHT22;11731;48.592;8.858;2023-03-14T07:40:16;10.40;99.90
23124;DHT22;11731;48.592;8.858;2023-03-14T07:42:43;10.30;99.90
23124;DHT22;11731;48.592;8.858;2023-03-14T07:45:11;10.60;99.90
23124;DHT22;11731;48.592;8.858;2023-03-14T07:47:38;10.70;99.90
23124;DHT22;11731;48.592;8.858;2023-03-14T07:50:06;10.80;99.90
23124;DHT22;11731;48.592;8.858;2023-03-14T07:52:33;10.90;99.90
23124;DHT22;11731;48.592;8.858;2023-03-14T07:55:01;10.90;99.90
23124;DHT22;11731;48.592;8.858;2023-03-14T07:57:28;11.00;99.90
23124;DHT22;11731;48.592;8.858;2023-03-14T07:59:55;11.00;99.90
23124;DHT22;11731;48.592;8.858;2023-03-14T08:02:23;11.10;99.90
23124;DHT22;11731;48.592;8.858;2023-03-14T08:05:03;11.20;99.90
23124;DHT22;11731;48.592;8.858;2023-03-14T08:07:34;11.20;99.90
23124;DHT22;11731;48.592;8.858;2023-03-14T08:10:07;11.10;99.90
23124;DHT22;11731;48.592;8.858;2023-03-14T08:12:47;11.00;99.90
23124;DHT22;11731;48.592;8.858;2023-03-14T08:15:14;11.00;99.90
23124;DHT22;11731;48.592;8.858;2023-03-14T08:17:43;11.10;99.90
23124;DHT22;11731;48.592;8.858;2023-03-14T08:20:28;11.00;99.90
23124;DHT22;11731;48.592;8.858;2023-03-14T08:23:33;11.20;99.90
23124;DHT22;11731;48.592;8.858;2023-03-14T08:26:00;10.90;99.90
23124;DHT22;11731;48.592;8.858;2023-03-14T08:28:27;10.90;99.90
23124;DHT22;11731;48.592;8.858;2023-03-14T08:30:56;11.00;99.90
23124;DHT22;11731;48.592;8.858;2023-03-14T08:36:42;11.10;99.90
23124;DHT22;11731;48.592;8.858;2023-03-14T08:39:09;10.70;99.90
23124;DHT22;11731;48.592;8.858;2023-03-14T08:41:36;10.60;99.90
23124;DHT22;11731;48.592;8.858;2023-03-14T08:44:05;10.60;99.90
23124;DHT22;11731;48.592;8.858;2023-03-14T08:46:37;10.90;99.90
23124;DHT22;11731;48.592;8.858;2023-03-14T08:49:05;10.90;99.90
23124;DHT22;11731;48.592;8.858;2023-03-14T08:51:32;10.80;99.90
23124;DHT22;11731;48.592;8.858;2023-03-14T08:54:00;10.80;99.90
23124;DHT22;11731;48.592;8.858;2023-03-14T08:56:27;10.80;99.90
23124;DHT22;11731;48.592;8.858;2023-03-14T08:58:54;10.70;99.90
23124;DHT22;11731;48.592;8.858;2023-03-14T09:01:21;10.70;99.90
23124;DHT22;11731;48.592;8.858;2023-03-14T09:03:49;10.80;99.90
23124;DHT22;11731;48.592;8.858;2023-03-14T09:06:16;10.90;99.90
23124;DHT22;11731;48.592;8.858;2023-03-14T09:08:57;10.90;99.90
23124;DHT22;11731;48.592;8.858;2023-03-14T09:11:39;11.10;99.90
23124;DHT22;11731;48.592;8.858;2023-03-14T09:14:06;11.30;99.90
23124;DHT22;11731;48.592;8.858;2023-03-14T09:17:37;11.30;99.90
23124;DHT22;11731;48.592;8.858;2023-03-14T09:19:39;11.10;99.90
23124;DHT22;11731;48.592;8.858;2023-03-14T09:22:06;11.30;99.90
23124;DHT22;11731;48.592;8.858;2023-03-14T09:24:33;11.60;99.90
23124;DHT22;11731;48.592;8.858;2023-03-14T09:27:01;11.30;99.90
23124;DHT22;11731;48.592;8.858;2023-03-14T09:29:28;11.30;99.90
23124;DHT22;11731;48.592;8.858;2023-03-14T09:31:55;11.50;99.90
23124;DHT22;11731;48.592;8.858;2023-03-14T09:34:24;11.60;99.90
23124;DHT22;11731;48.592;8.858;2023-03-14T09:36:51;11.30;99.90
23124;DHT22;11731;48.592;8.858;2023-03-14T09:39:18;11.40;99.90
23124;DHT22;11731;48.592;8.858;2023-03-14T09:41:47;11.20;99.90
23124;DHT22;11731;48.592;8.858;2023-03-14T09:44:21;11.10;99.90
23124;DHT22;11731;48.592;8.858;2023-03-14T09:46:50;11.00;99.90
23124;DHT22;11731;48.592;8.858;2023-03-14T09:49:21;11.10;99.90
23124;DHT22;11731;48.592;8.858;2023-03-14T09:51:52;11.30;99.90
23124;DHT22;11731;48.592;8.858;2023-03-14T09:54:30;11.50;99.90
23124;DHT22;11731;48.592;8.858;2023-03-14T09:56:58;11.60;99.90
23124;DHT22;11731;48.592;8.858;2023-03-14T09:59:27;11.60;99.90
23124;DHT22;11731;48.592;8.858;2023-03-14T10:01:56;11.90;99.90
23124;DHT22;11731;48.592;8.858;2023-03-14T10:04:23;12.20;99.90
23124;DHT22;11731;48.592;8.858;2023-03-14T10:06:50;12.10;99.90
23124;DHT22;11731;48.592;8.858;2023-03-14T10:09:20;12.00;99.90
23124;DHT22;11731;48.592;8.858;2023-03-14T10:11:52;12.00;99.90
23124;DHT22;11731;48.592;8.858;2023-03-14T10:14:31;12.00;99.90
23124;DHT22;11731;48.592;8.858;2023-03-14T10:17:06;12.20;99.90
23124;DHT22;11731;48.592;8.858;2023-03-14T10:19:33;12.00;99.90
23124;DHT22;11731;48.592;8.858;2023-03-14T10:22:16;12.20;99.90
23124;DHT22;11731;48.592;8.858;2023-03-14T10:24:54;12.20;99.90
23124;DHT22;11731;48.592;8.858;2023-03-14T10:27:28;12.20;99.90
23124;DHT22;11731;48.592;8.858;2023-03-14T10:29:59;12.30;99.90
23124;DHT22;11731;48.592;8.858;2023-03-14T10:32:44;12.80;99.90
23124;DHT22;11731;48.592;8.858;2023-03-14T10:35:20;13.30;99.90
23124;DHT22;11731;48.592;8.858;2023-03-14T10:37:52;13.10;99.90
23124;DHT22;11731;48.592;8.858;2023-03-14T10:40:26;12.60;99.90
23124;DHT22;11731;48.592;8.858;2023-03-14T10:42:53;12.20;99.90
23124;DHT22;11731;48.592;8.858;2023-03-14T10:45:30;12.20;99.90
23124;DHT22;11731;48.592;8.858;2023-03-14T10:48:05;12.20;99.90
23124;DHT22;11731;48.592;8.858;2023-03-14T10:50:33;12.50;99.90
23124;DHT22;11731;48.592;8.858;2023-03-14T10:53:02;12.30;99.90
23124;DHT22;11731;48.592;8.858;2023-03-14T10:55:40;12.00;99.90
23124;DHT22;11731;48.592;8.858;2023-03-14T10:58:20;11.90;99.90
23124;DHT22;11731;48.592;8.858;2023-03-14T11:01:08;11.70;99.90
23124;DHT22;11731;48.592;8.858;2023-03-14T11:04:13;11.50;99.90
23124;DHT22;11731;48.592;8.858;2023-03-14T11:06:59;11.30;99.90
23124;DHT22;11731;48.592;8.858;2023-03-14T11:09:37;11.60;99.90
23124;DHT22;11731;48.592;8.858;2023-03-14T11:12:34;11.70;99.90
23124;DHT22;11731;48.592;8.858;2023-03-14T11:15:13;11.90;99.90
23124;DHT22;11731;48.592;8.858;2023-03-14T11:17:50;11.90;99.90
23124;DHT22;11731;48.592;8.858;2023-03-14T11:20:32;11.30;99.90
23124;DHT22;11731;48.592;8.858;2023-03-14T11:23:02;11.30;99.90
23124;DHT22;11731;48.592;8.858;2023-03-14T11:25:33;11.20;99.90
23124;DHT22;11731;48.592;8.858;2023-03-14T11:28:10;11.10;99.90
23124;DHT22;11731;48.592;8.858;2023-03-14T11:30:51;10.90;99.90
23124;DHT22;11731;48.592;8.858;2023-03-14T11:33:23;10.90;99.90
23124;DHT22;11731;48.592;8.858;2023-03-14T11:35:57;11.20;99.90
23124;DHT22;11731;48.592;8.858;2023-03-14T11:38:37;11.50;99.90
23124;DHT22;11731;48.592;8.858;2023-03-14T11:41:12;11.60;99.90
23124;DHT22;11731;48.592;8.858;2023-03-14T11:43:45;11.70;99.90
23124;DHT22;11731;48.592;8.858;2023-03-14T11:46:17;11.90;99.90
23124;DHT22;11731;48.592;8.858;2023-03-14T11:48:58;11.90;99.90
23124;DHT22;11731;48.592;8.858;2023-03-14T11:51:27;11.70;99.90
23124;DHT22;11731;48.592;8.858;2023-03-14T11:54:00;11.40;99.90
23124;DHT22;11731;48.592;8.858;2023-03-14T11:56:36;11.60;99.90
23124;DHT22;11731;48.592;8.858;2023-03-14T11:59:13;11.40;99.90
23124;DHT22;11731;48.592;8.858;2023-03-14T12:01:58;11.20;99.90
23124;DHT22;11731;48.592;8.858;2023-03-14T12:04:42;11.00;99.90
23124;DHT22;11731;48.592;8.858;2023-03-14T12:07:17;10.80;99.90
23124;DHT22;11731;48.592;8.858;2023-03-14T12:09:46;10.60;99.90
23124;DHT22;11731;48.592;8.858;2023-03-14T12:12:18;10.30;99.90
23124;DHT22;11731;48.592;8.858;2023-03-14T12:14:53;10.40;99.90
23124;DHT22;11731;48.592;8.858;2023-03-14T12:17:41;10.60;99.90
23124;DHT22;11731;48.592;8.858;2023-03-14T12:30:37;11.50;99.90
23124;DHT22;11731;48.592;8.858;2023-03-14T12:36:01;10.20;99.90
23124;DHT22;11731;48.592;8.858;2023-03-14T12:38:44;10.10;99.90
23124;DHT22;11731;48.592;8.858;2023-03-14T12:41:17;10.00;99.90
23124;DHT22;11731;48.592;8.858;2023-03-14T12:43:46;9.70;99.90
23124;DHT22;11731;48.592;8.858;2023-03-14T12:46:23;9.60;99.90
23124;DHT22;11731;48.592;8.858;2023-03-14T12:48:54;9.70;99.90
23124;DHT22;11731;48.592;8.858;2023-03-14T12:51:29;9.50;99.90
23124;DHT22;11731;48.592;8.858;2023-03-14T12:54:17;9.50;99.90
23124;DHT22;11731;48.592;8.858;2023-03-14T12:57:06;9.50;98.40
23124;DHT22;11731;48.592;8.858;2023-03-14T12:59:37;9.20;98.90
23124;DHT22;11731;48.592;8.858;2023-03-14T13:02:24;9.10;98.60
23124;DHT22;11731;48.592;8.858;2023-03-14T13:04:59;8.80;99.00
23124;DHT22;11731;48.592;8.858;2023-03-14T13:07:34;8.80;99.40
23124;DHT22;11731;48.592;8.858;2023-03-14T13:10:03;9.00;99.50
23124;DHT22;11731;48.592;8.858;2023-03-14T13:12:38;9.10;99.40
23124;DHT22;11731;48.592;8.858;2023-03-14T13:15:18;9.20;99.70
23124;DHT22;11731;48.592;8.858;2023-03-14T13:17:49;9.20;99.60
23124;DHT22;11731;48.592;8.858;2023-03-14T13:20:20;9.10;99.70
23124;DHT22;11731;48.592;8.858;2023-03-14T13:22:49;9.00;99.50
23124;DHT22;11731;48.592;8.858;2023-03-14T13:25:16;9.30;99.90
23124;DHT22;11731;48.592;8.858;2023-03-14T13:27:47;9.00;98.00
23124;DHT22;11731;48.592;8.858;2023-03-14T13:30:21;9.10;98.80
23124;DHT22;11731;48.592;8.858;2023-03-14T13:32:51;9.30;98.60
23124;DHT22;11731;48.592;8.858;2023-03-14T13:35:21;9.20;99.30
23124;DHT22;11731;48.592;8.858;2023-03-14T13:37:54;9.20;99.70
23124;DHT22;11731;48.592;8.858;2023-03-14T13:40:25;9.20;98.80
23124;DHT22;11731;48.592;8.858;2023-03-14T13:43:04;9.00;97.90
23124;DHT22;11731;48.592;8.858;2023-03-14T13:45:31;8.90;98.40
23124;DHT22;11731;48.592;8.858;2023-03-14T13:47:59;8.70;99.10
23124;DHT22;11731;48.592;8.858;2023-03-14T13:50:26;8.90;98.50
23124;DHT22;11731;48.592;8.858;2023-03-14T13:52:56;8.70;98.40
23124;DHT22;11731;48.592;8.858;2023-03-14T13:55:24;8.70;98.40
23124;DHT22;11731;48.592;8.858;2023-03-14T13:57:53;8.60;97.70
23124;DHT22;11731;48.592;8.858;2023-03-14T14:00:23;8.50;98.50
23124;DHT22;11731;48.592;8.858;2023-03-14T14:02:53;8.50;97.30
23124;DHT22;11731;48.592;8.858;2023-03-14T14:05:22;8.60;97.90
23124;DHT22;11731;48.592;8.858;2023-03-14T14:07:49;8.70;98.20
23124;DHT22;11731;48.592;8.858;2023-03-14T14:10:18;8.70;97.80
23124;DHT22;11731;48.592;8.858;2023-03-14T14:12:47;9.20;97.30
23124;DHT22;11731;48.592;8.858;2023-03-14T14:15:18;9.30;97.00
23124;DHT22;11731;48.592;8.858;2023-03-14T14:17:50;9.60;96.20
23124;DHT22;11731;48.592;8.858;2023-03-14T14:20:27;9.60;95.90
23124;DHT22;11731;48.592;8.858;2023-03-14T14:22:57;9.60;96.40
23124;DHT22;11731;48.592;8.858;2023-03-14T14:25:25;9.40;96.20
23124;DHT22;11731;48.592;8.858;2023-03-14T14:27:52;9.30;96.70
23124;DHT22;11731;48.592;8.858;2023-03-14T14:30:29;9.40;95.90
23124;DHT22;11731;48.592;8.858;2023-03-14T14:33:12;9.20;95.60
23124;DHT22;11731;48.592;8.858;2023-03-14T14:35:41;9.30;95.80
23124;DHT22;11731;48.592;8.858;2023-03-14T14:38:16;9.50;95.30
23124;DHT22;11731;48.592;8.858;2023-03-14T14:40:45;9.20;94.50
23124;DHT22;11731;48.592;8.858;2023-03-14T14:43:17;9.00;95.10
23124;DHT22;11731;48.592;8.858;2023-03-14T14:45:45;9.20;95.20
23124;DHT22;11731;48.592;8.858;2023-03-14T14:51:32;9.30;92.70
23124;DHT22;11731;48.592;8.858;2023-03-14T14:54:04;9.30;93.20
23124;DHT22;11731;48.592;8.858;2023-03-14T14:56:35;9.10;92.60
23124;DHT22;11731;48.592;8.858;2023-03-14T14:59:03;9.20;92.80
23124;DHT22;11731;48.592;8.858;2023-03-14T15:01:34;9.10;94.30
23124;DHT22;11731;48.592;8.858;2023-03-14T15:04:01;9.20;94.70
23124;DHT22;11731;48.592;8.858;2023-03-14T15:06:30;9.20;94.70
23124;DHT22;11731;48.592;8.858;2023-03-14T15:08:57;9.30;95.20
23124;DHT22;11731;48.592;8.858;2023-03-14T15:11:26;9.40;94.60
23124;DHT22;11731;48.592;8.858;2023-03-14T15:13:53;9.50;94.70
23124;DHT22;11731;48.592;8.858;2023-03-14T15:16:22;9.20;94.70
23124;DHT22;11731;48.592;8.858;2023-03-14T15:18:53;9.10;94.80
23124;DHT22;11731;48.592;8.858;2023-03-14T15:21:20;9.10;94.50
23124;DHT22;11731;48.592;8.858;2023-03-14T15:23:49;9.10;94.40
23124;DHT22;11731;48.592;8.858;2023-03-14T15:26:18;9.20;94.60
23124;DHT22;11731;48.592;8.858;2023-03-14T15:28:45;9.10;94.40
23124;DHT22;11731;48.592;8.858;2023-03-14T15:31:13;9.30;95.30
23124;DHT22;11731;48.592;8.858;2023-03-14T15:33:41;9.30;95.40
23124;DHT22;11731;48.592;8.858;2023-03-14T15:36:19;9.40;94.70
23124;DHT22;11731;48.592;8.858;2023-03-14T15:38:48;9.00;93.90
23124;DHT22;11731;48.592;8.858;2023-03-14T15:41:15;8.80;94.30
23124;DHT22;11731;48.592;8.858;2023-03-14T15:43:42;8.90;95.00
23124;DHT22;11731;48.592;8.858;2023-03-14T15:46:09;8.90;94.70
23124;DHT22;11731;48.592;8.858;2023-03-14T15:48:37;8.90;94.50
23124;DHT22;11731;48.592;8.858;2023-03-14T15:51:04;8.90;94.40
23124;DHT22;11731;48.592;8.858;2023-03-14T15:53:31;8.80;94.40
23124;DHT22;11731;48.592;8.858;2023-03-14T15:55:59;8.70;94.60
23124;DHT22;11731;48.592;8.858;2023-03-14T15:58:26;8.80;95.60
23124;DHT22;11731;48.592;8.858;2023-03-14T16:00:53;8.80;95.40
23124;DHT22;11731;48.592;8.858;2023-03-14T16:03:20;9.00;95.60
23124;DHT22;11731;48.592;8.858;2023-03-14T16:05:47;8.90;95.70
23124;DHT22;11731;48.592;8.858;2023-03-14T16:08:14;9.00;95.60
23124;DHT22;11731;48.592;8.858;2023-03-14T16:10:42;9.10;95.30
23124;DHT22;11731;48.592;8.858;2023-03-14T16:13:10;9.00;95.80
23124;DHT22;11731;48.592;8.858;2023-03-14T16:15:37;8.80;95.80
23124;DHT22;11731;48.592;8.858;2023-03-14T16:18:04;8.90;96.20
23124;DHT22;11731;48.592;8.858;2023-03-14T16:20:31;8.70;95.90
23124;DHT22;11731;48.592;8.858;2023-03-14T16:22:58;8.60;96.30
23124;DHT22;11731;48.592;8.858;2023-03-14T16:25:25;8.50;96.20
23124;DHT22;11731;48.592;8.858;2023-03-14T16:27:52;8.60;96.50
23124;DHT22;11731;48.592;8.858;2023-03-14T16:30:20;8.50;96.70
23124;DHT22;11731;48.592;8.858;2023-03-14T16:32:47;8.60;96.90
23124;DHT22;11731;48.592;8.858;2023-03-14T16:35:14;8.70;97.90
23124;DHT22;11731;48.592;8.858;2023-03-14T16:37:41;8.10;98.50
23124;DHT22;11731;48.592;8.858;2023-03-14T16:40:09;7.70;99.40
23124;DHT22;11731;48.592;8.858;2023-03-14T16:42:36;7.80;99.90